sensor_id;sensor_type;location;lat;lon;timestamp;P1;durP1;ratioP1;P2;durP2;ratioP2
30303;SDS011;17112;48.636;10.152;2024-02-04T00:02:20;1.73;;;0.98;;
30303;SDS011;17112;48.636;10.152;2024-02-04T00:04:47;1.00;;;0.90;;
30303;SDS011;17112;48.636;10.152;2024-02-04T00:07:13;0.80;;;0.80;;
30303;SDS011;17112;48.636;10.152;2024-02-04T00:09:39;1.42;;;0.98;;
30303;SDS011;17112;48.636;10.152;2024-02-04T00:12:04;1.17;;;0.93;;
30303;SDS011;17112;48.636;10.152;2024-02-04T00:14:31;1.20;;;1.00;;
30303;SDS011;17112;48.636;10.152;2024-02-04T00:16:57;0.80;;;0.70;;
30303;SDS011;17112;48.636;10.152;2024-02-04T00:19:23;0.80;;;0.77;;
30303;SDS011;17112;48.636;10.152;2024-02-04T00:21:49;1.77;;;1.00;;
30303;SDS011;17112;48.636;10.152;2024-02-04T00:24:16;0.90;;;0.80;;
30303;SDS011;17112;48.636;10.152;2024-02-04T00:26:43;1.48;;;0.90;;
30303;SDS011;17112;48.636;10.152;2024-02-04T00:29:09;0.90;;;0.90;;
30303;SDS011;17112;48.636;10.152;2024-02-04T00:31:35;0.80;;;0.80;;
30303;SDS011;17112;48.636;10.152;2024-02-04T00:34:00;1.27;;;1.00;;
30303;SDS011;17112;48.636;10.152;2024-02-04T00:36:26;1.85;;;1.00;;
30303;SDS011;17112;48.636;10.152;2024-02-04T00:38:52;2.85;;;1.23;;
30303;SDS011;17112;48.636;10.152;2024-02-04T00:41:17;2.42;;;1.05;;
30303;SDS011;17112;48.636;10.152;2024-02-04T00:43:43;0.70;;;0.70;;
30303;SDS011;17112;48.636;10.152;2024-02-04T00:46:08;1.02;;;0.80;;
30303;SDS011;17112;48.636;10.152;2024-02-04T00:48:36;0.82;;;0.82;;
30303;SDS011;17112;48.636;10.152;2024-02-04T00:51:02;1.33;;;1.00;;
30303;SDS011;17112;48.636;10.152;2024-02-04T00:53:28;2.88;;;1.05;;
30303;SDS011;17112;48.636;10.152;2024-02-04T00:56:00;1.42;;;1.05;;
30303;SDS011;17112;48.636;10.152;2024-02-04T00:58:28;0.85;;;0.85;;
30303;SDS011;17112;48.636;10.152;2024-02-04T01:00:54;0.90;;;0.90;;
30303;SDS011;17112;48.636;10.152;2024-02-04T01:03:20;1.25;;;1.00;;
30303;SDS011;17112;48.636;10.152;2024-02-04T01:05:45;2.35;;;0.90;;
30303;SDS011;17112;48.636;10.152;2024-02-04T01:08:11;2.55;;;0.88;;
30303;SDS011;17112;48.636;10.152;2024-02-04T01:10:36;1.00;;;0.90;;
30303;SDS011;17112;48.636;10.152;2024-02-04T01:13:03;1.58;;;1.10;;
30303;SDS011;17112;48.636;10.152;2024-02-04T01:15:29;1.20;;;0.90;;
30303;SDS011;17112;48.636;10.152;2024-02-04T01:17:55;1.40;;;0.90;;
30303;SDS011;17112;48.636;10.152;2024-02-04T01:20:20;1.85;;;1.00;;
30303;SDS011;17112;48.636;10.152;2024-02-04T01:22:46;1.42;;;1.05;;
30303;SDS011;17112;48.636;10.152;2024-02-04T01:25:12;2.35;;;0.95;;
30303;SDS011;17112;48.636;10.152;2024-02-04T01:27:37;0.80;;;0.80;;
30303;SDS011;17112;48.636;10.152;2024-02-04T01:30:03;1.17;;;0.80;;
30303;SDS011;17112;48.636;10.152;2024-02-04T01:32:29;1.25;;;1.15;;
30303;SDS011;17112;48.636;10.152;2024-02-04T01:34:55;2.75;;;0.93;;
30303;SDS011;17112;48.636;10.152;2024-02-04T01:37:21;0.80;;;0.80;;
30303;SDS011;17112;48.636;10.152;2024-02-04T01:39:46;0.85;;;0.82;;
30303;SDS011;17112;48.636;10.152;2024-02-04T01:42:12;1.02;;;0.90;;
30303;SDS011;17112;48.636;10.152;2024-02-04T01:44:38;0.70;;;0.70;;
30303;SDS011;17112;48.636;10.152;2024-02-04T01:47:04;0.70;;;0.70;;
30303;SDS011;17112;48.636;10.152;2024-02-04T01:49:31;0.80;;;0.80;;
30303;SDS011;17112;48.636;10.152;2024-02-04T01:51:57;1.25;;;0.93;;
30303;SDS011;17112;48.636;10.152;2024-02-04T01:54:23;0.90;;;0.73;;
30303;SDS011;17112;48.636;10.152;2024-02-04T01:56:50;0.88;;;0.80;;
30303;SDS011;17112;48.636;10.152;2024-02-04T01:59:17;1.10;;;0.80;;
30303;SDS011;17112;48.636;10.152;2024-02-04T02:01:45;0.90;;;0.70;;
30303;SDS011;17112;48.636;10.152;2024-02-04T02:04:12;0.80;;;0.80;;
30303;SDS011;17112;48.636;10.152;2024-02-04T02:06:39;1.48;;;0.80;;
30303;SDS011;17112;48.636;10.152;2024-02-04T02:09:08;1.73;;;0.90;;
30303;SDS011;17112;48.636;10.152;2024-02-04T02:11:46;0.70;;;0.70;;
30303;SDS011;17112;48.636;10.152;2024-02-04T02:14:16;0.77;;;0.77;;
30303;SDS011;17112;48.636;10.152;2024-02-04T02:16:48;1.15;;;0.60;;
30303;SDS011;17112;48.636;10.152;2024-02-04T02:25:11;1.23;;;0.60;;
30303;SDS011;17112;48.636;10.152;2024-02-04T02:27:50;0.70;;;0.70;;
30303;SDS011;17112;48.636;10.152;2024-02-04T02:30:16;0.63;;;0.63;;
30303;SDS011;17112;48.636;10.152;2024-02-04T02:32:45;1.38;;;0.70;;
30303;SDS011;17112;48.636;10.152;2024-02-04T02:35:12;0.95;;;0.88;;
30303;SDS011;17112;48.636;10.152;2024-02-04T02:40:26;0.70;;;0.70;;
30303;SDS011;17112;48.636;10.152;2024-02-04T02:43:05;0.65;;;0.65;;
30303;SDS011;17112;48.636;10.152;2024-02-04T02:45:31;1.20;;;0.63;;
30303;SDS011;17112;48.636;10.152;2024-02-04T02:47:57;0.60;;;0.60;;
30303;SDS011;17112;48.636;10.152;2024-02-04T02:50:24;0.90;;;0.70;;
30303;SDS011;17112;48.636;10.152;2024-02-04T02:52:49;0.70;;;0.70;;
30303;SDS011;17112;48.636;10.152;2024-02-04T02:55:15;0.60;;;0.60;;
30303;SDS011;17112;48.636;10.152;2024-02-04T02:57:41;0.70;;;0.70;;
30303;SDS011;17112;48.636;10.152;2024-02-04T03:00:07;0.80;;;0.80;;
30303;SDS011;17112;48.636;10.152;2024-02-04T03:02:34;0.60;;;0.60;;
30303;SDS011;17112;48.636;10.152;2024-02-04T03:04:59;0.55;;;0.55;;
30303;SDS011;17112;48.636;10.152;2024-02-04T03:07:25;0.75;;;0.75;;
30303;SDS011;17112;48.636;10.152;2024-02-04T03:09:52;0.60;;;0.60;;
30303;SDS011;17112;48.636;10.152;2024-02-04T03:12:19;0.60;;;0.60;;
30303;SDS011;17112;48.636;10.152;2024-02-04T03:14:45;0.82;;;0.70;;
30303;SDS011;17112;48.636;10.152;2024-02-04T03:17:10;0.60;;;0.60;;
30303;SDS011;17112;48.636;10.152;2024-02-04T03:19:37;0.60;;;0.60;;
30303;SDS011;17112;48.636;10.152;2024-02-04T03:22:03;1.15;;;0.60;;
30303;SDS011;17112;48.636;10.152;2024-02-04T03:24:28;0.60;;;0.60;;
30303;SDS011;17112;48.636;10.152;2024-02-04T03:26:54;0.60;;;0.60;;
30303;SDS011;17112;48.636;10.152;2024-02-04T03:29:20;0.60;;;0.60;;
30303;SDS011;17112;48.636;10.152;2024-02-04T03:31:46;0.60;;;0.60;;
30303;SDS011;17112;48.636;10.152;2024-02-04T03:34:11;0.60;;;0.60;;
30303;SDS011;17112;48.636;10.152;2024-02-04T03:36:39;0.60;;;0.60;;
30303;SDS011;17112;48.636;10.152;2024-02-04T03:39:05;0.60;;;0.60;;
30303;SDS011;17112;48.636;10.152;2024-02-04T03:41:31;0.70;;;0.70;;
30303;SDS011;17112;48.636;10.152;2024-02-04T03:43:56;0.50;;;0.50;;
30303;SDS011;17112;48.636;10.152;2024-02-04T03:46:22;0.70;;;0.70;;
30303;SDS011;17112;48.636;10.152;2024-02-04T03:48:49;0.68;;;0.68;;
30303;SDS011;17112;48.636;10.152;2024-02-04T03:51:15;0.60;;;0.60;;
30303;SDS011;17112;48.636;10.152;2024-02-04T03:53:42;0.60;;;0.60;;
30303;SDS011;17112;48.636;10.152;2024-02-04T03:56:12;0.60;;;0.60;;
30303;SDS011;17112;48.636;10.152;2024-02-04T03:58:38;0.60;;;0.60;;
30303;SDS011;17112;48.636;10.152;2024-02-04T04:01:04;1.30;;;0.60;;
30303;SDS011;17112;48.636;10.152;2024-02-04T04:03:29;0.60;;;0.60;;
30303;SDS011;17112;48.636;10.152;2024-02-04T04:05:55;0.70;;;0.70;;
30303;SDS011;17112;48.636;10.152;2024-02-04T04:08:24;0.63;;;0.63;;
30303;SDS011;17112;48.636;10.152;2024-02-04T04:10:49;0.75;;;0.75;;
30303;SDS011;17112;48.636;10.152;2024-02-04T04:13:15;0.60;;;0.60;;
30303;SDS011;17112;48.636;10.152;2024-02-04T04:15:41;3.15;;;0.70;;
30303;SDS011;17112;48.636;10.152;2024-02-04T04:18:07;0.60;;;0.60;;
30303;SDS011;17112;48.636;10.152;2024-02-04T04:20:33;0.65;;;0.60;;
30303;SDS011;17112;48.636;10.152;2024-02-04T04:22:58;0.60;;;0.60;;
30303;SDS011;17112;48.636;10.152;2024-02-04T04:25:24;0.70;;;0.70;;
30303;SDS011;17112;48.636;10.152;2024-02-04T04:27:50;0.85;;;0.80;;
30303;SDS011;17112;48.636;10.152;2024-02-04T04:30:15;0.68;;;0.63;;
30303;SDS011;17112;48.636;10.152;2024-02-04T04:32:41;0.70;;;0.70;;
30303;SDS011;17112;48.636;10.152;2024-02-04T04:35:07;0.60;;;0.60;;
30303;SDS011;17112;48.636;10.152;2024-02-04T04:37:32;0.70;;;0.70;;
30303;SDS011;17112;48.636;10.152;2024-02-04T04:39:58;0.70;;;0.70;;
30303;SDS011;17112;48.636;10.152;2024-02-04T04:42:24;0.70;;;0.70;;
30303;SDS011;17112;48.636;10.152;2024-02-04T04:44:50;0.80;;;0.80;;
30303;SDS011;17112;48.636;10.152;2024-02-04T04:47:15;0.68;;;0.68;;
30303;SDS011;17112;48.636;10.152;2024-02-04T04:49:41;0.80;;;0.80;;
30303;SDS011;17112;48.636;10.152;2024-02-04T04:52:07;0.80;;;0.80;;
30303;SDS011;17112;48.636;10.152;2024-02-04T04:54:32;0.80;;;0.80;;
30303;SDS011;17112;48.636;10.152;2024-02-04T04:56:58;0.80;;;0.80;;
30303;SDS011;17112;48.636;10.152;2024-02-04T04:59:24;0.70;;;0.70;;
30303;SDS011;17112;48.636;10.152;2024-02-04T05:01:49;0.70;;;0.70;;
30303;SDS011;17112;48.636;10.152;2024-02-04T05:04:15;0.70;;;0.70;;
30303;SDS011;17112;48.636;10.152;2024-02-04T05:06:43;0.75;;;0.70;;
30303;SDS011;17112;48.636;10.152;2024-02-04T05:09:09;0.90;;;0.90;;
30303;SDS011;17112;48.636;10.152;2024-02-04T05:11:35;0.70;;;0.70;;
30303;SDS011;17112;48.636;10.152;2024-02-04T05:14:00;0.70;;;0.70;;
30303;SDS011;17112;48.636;10.152;2024-02-04T05:16:26;0.60;;;0.60;;
30303;SDS011;17112;48.636;10.152;2024-02-04T05:18:52;0.70;;;0.70;;
30303;SDS011;17112;48.636;10.152;2024-02-04T05:21:17;0.60;;;0.60;;
30303;SDS011;17112;48.636;10.152;2024-02-04T05:23:43;0.70;;;0.70;;
30303;SDS011;17112;48.636;10.152;2024-02-04T05:26:09;0.80;;;0.80;;
30303;SDS011;17112;48.636;10.152;2024-02-04T05:28:35;0.70;;;0.70;;
30303;SDS011;17112;48.636;10.152;2024-02-04T05:31:01;0.63;;;0.63;;
30303;SDS011;17112;48.636;10.152;2024-02-04T05:33:27;0.93;;;0.80;;
30303;SDS011;17112;48.636;10.152;2024-02-04T05:35:53;0.80;;;0.80;;
30303;SDS011;17112;48.636;10.152;2024-02-04T05:38:19;0.90;;;0.90;;
30303;SDS011;17112;48.636;10.152;2024-02-04T05:40:45;0.85;;;0.85;;
30303;SDS011;17112;48.636;10.152;2024-02-04T05:43:11;0.85;;;0.85;;
30303;SDS011;17112;48.636;10.152;2024-02-04T05:45:37;0.70;;;0.70;;
30303;SDS011;17112;48.636;10.152;2024-02-04T05:48:06;0.70;;;0.70;;
30303;SDS011;17112;48.636;10.152;2024-02-04T05:50:32;0.70;;;0.70;;
30303;SDS011;17112;48.636;10.152;2024-02-04T05:52:58;0.60;;;0.60;;
30303;SDS011;17112;48.636;10.152;2024-02-04T05:55:24;0.70;;;0.70;;
30303;SDS011;17112;48.636;10.152;2024-02-04T05:57:50;0.80;;;0.80;;
30303;SDS011;17112;48.636;10.152;2024-02-04T06:00:15;1.08;;;0.70;;
30303;SDS011;17112;48.636;10.152;2024-02-04T06:02:41;0.60;;;0.60;;
30303;SDS011;17112;48.636;10.152;2024-02-04T06:05:08;0.70;;;0.70;;
30303;SDS011;17112;48.636;10.152;2024-02-04T06:07:34;0.60;;;0.60;;
30303;SDS011;17112;48.636;10.152;2024-02-04T06:10:00;0.70;;;0.70;;
30303;SDS011;17112;48.636;10.152;2024-02-04T06:12:28;0.77;;;0.77;;
30303;SDS011;17112;48.636;10.152;2024-02-04T06:14:54;0.70;;;0.70;;
30303;SDS011;17112;48.636;10.152;2024-02-04T06:17:20;0.73;;;0.60;;
30303;SDS011;17112;48.636;10.152;2024-02-04T06:19:46;0.60;;;0.60;;
30303;SDS011;17112;48.636;10.152;2024-02-04T06:22:11;0.63;;;0.60;;
30303;SDS011;17112;48.636;10.152;2024-02-04T06:24:37;0.60;;;0.60;;
30303;SDS011;17112;48.636;10.152;2024-02-04T06:27:05;0.50;;;0.50;;
30303;SDS011;17112;48.636;10.152;2024-02-04T06:29:35;0.88;;;0.88;;
30303;SDS011;17112;48.636;10.152;2024-02-04T06:32:02;1.60;;;0.82;;
30303;SDS011;17112;48.636;10.152;2024-02-04T06:34:28;0.70;;;0.70;;
30303;SDS011;17112;48.636;10.152;2024-02-04T06:36:54;0.70;;;0.70;;
30303;SDS011;17112;48.636;10.152;2024-02-04T06:39:19;0.80;;;0.60;;
30303;SDS011;17112;48.636;10.152;2024-02-04T06:41:45;0.60;;;0.60;;
30303;SDS011;17112;48.636;10.152;2024-02-04T06:44:11;0.60;;;0.60;;
30303;SDS011;17112;48.636;10.152;2024-02-04T06:46:37;0.95;;;0.70;;
30303;SDS011;17112;48.636;10.152;2024-02-04T06:49:03;0.60;;;0.60;;
30303;SDS011;17112;48.636;10.152;2024-02-04T06:51:29;0.60;;;0.60;;
30303;SDS011;17112;48.636;10.152;2024-02-04T06:53:54;0.60;;;0.60;;
30303;SDS011;17112;48.636;10.152;2024-02-04T06:56:20;0.60;;;0.60;;
30303;SDS011;17112;48.636;10.152;2024-02-04T06:58:46;0.60;;;0.60;;
30303;SDS011;17112;48.636;10.152;2024-02-04T07:01:11;0.50;;;0.50;;
30303;SDS011;17112;48.636;10.152;2024-02-04T07:03:37;0.60;;;0.60;;
30303;SDS011;17112;48.636;10.152;2024-02-04T07:06:03;0.50;;;0.50;;
30303;SDS011;17112;48.636;10.152;2024-02-04T07:08:29;0.63;;;0.63;;
30303;SDS011;17112;48.636;10.152;2024-02-04T07:10:55;0.50;;;0.50;;
30303;SDS011;17112;48.636;10.152;2024-02-04T07:13:20;0.60;;;0.60;;
30303;SDS011;17112;48.636;10.152;2024-02-04T07:15:47;0.93;;;0.93;;
30303;SDS011;17112;48.636;10.152;2024-02-04T07:18:13;0.73;;;0.52;;
30303;SDS011;17112;48.636;10.152;2024-02-04T07:20:38;0.82;;;0.80;;
30303;SDS011;17112;48.636;10.152;2024-02-04T07:23:04;0.63;;;0.60;;
30303;SDS011;17112;48.636;10.152;2024-02-04T07:25:30;0.82;;;0.82;;
30303;SDS011;17112;48.636;10.152;2024-02-04T07:27:57;1.30;;;1.20;;
30303;SDS011;17112;48.636;10.152;2024-02-04T07:30:23;0.68;;;0.68;;
30303;SDS011;17112;48.636;10.152;2024-02-04T07:32:49;0.60;;;0.60;;
30303;SDS011;17112;48.636;10.152;2024-02-04T07:35:14;0.55;;;0.55;;
30303;SDS011;17112;48.636;10.152;2024-02-04T07:37:40;0.90;;;0.60;;
30303;SDS011;17112;48.636;10.152;2024-02-04T07:40:06;0.65;;;0.57;;
30303;SDS011;17112;48.636;10.152;2024-02-04T07:42:32;0.57;;;0.57;;
30303;SDS011;17112;48.636;10.152;2024-02-04T07:44:58;0.60;;;0.60;;
30303;SDS011;17112;48.636;10.152;2024-02-04T07:47:24;0.68;;;0.60;;
30303;SDS011;17112;48.636;10.152;2024-02-04T07:49:51;0.60;;;0.60;;
30303;SDS011;17112;48.636;10.152;2024-02-04T07:52:17;0.70;;;0.70;;
30303;SDS011;17112;48.636;10.152;2024-02-04T07:54:43;0.65;;;0.65;;
30303;SDS011;17112;48.636;10.152;2024-02-04T07:57:09;0.80;;;0.80;;
30303;SDS011;17112;48.636;10.152;2024-02-04T07:59:35;0.60;;;0.60;;
30303;SDS011;17112;48.636;10.152;2024-02-04T08:02:01;0.63;;;0.60;;
30303;SDS011;17112;48.636;10.152;2024-02-04T08:04:27;1.08;;;0.60;;
30303;SDS011;17112;48.636;10.152;2024-02-04T08:06:53;0.60;;;0.60;;
30303;SDS011;17112;48.636;10.152;2024-02-04T08:09:19;1.20;;;0.98;;
30303;SDS011;17112;48.636;10.152;2024-02-04T08:11:45;1.35;;;1.08;;
30303;SDS011;17112;48.636;10.152;2024-02-04T08:14:10;0.70;;;0.70;;
30303;SDS011;17112;48.636;10.152;2024-02-04T08:16:36;0.93;;;0.93;;
30303;SDS011;17112;48.636;10.152;2024-02-04T08:19:01;1.40;;;1.20;;
30303;SDS011;17112;48.636;10.152;2024-02-04T08:21:27;1.27;;;1.17;;
30303;SDS011;17112;48.636;10.152;2024-02-04T08:23:56;0.70;;;0.70;;
30303;SDS011;17112;48.636;10.152;2024-02-04T08:26:22;0.77;;;0.77;;
30303;SDS011;17112;48.636;10.152;2024-02-04T08:28:47;2.10;;;1.92;;
30303;SDS011;17112;48.636;10.152;2024-02-04T08:31:13;1.80;;;1.13;;
30303;SDS011;17112;48.636;10.152;2024-02-04T08:33:51;2.67;;;1.30;;
30303;SDS011;17112;48.636;10.152;2024-02-04T08:36:18;1.48;;;1.10;;
30303;SDS011;17112;48.636;10.152;2024-02-04T08:38:44;1.45;;;1.35;;
30303;SDS011;17112;48.636;10.152;2024-02-04T08:41:10;1.23;;;1.00;;
30303;SDS011;17112;48.636;10.152;2024-02-04T08:43:35;1.52;;;1.23;;
30303;SDS011;17112;48.636;10.152;2024-02-04T08:46:01;6.13;;;4.40;;
30303;SDS011;17112;48.636;10.152;2024-02-04T08:48:28;15.38;;;9.30;;
30303;SDS011;17112;48.636;10.152;2024-02-04T08:50:54;12.82;;;8.38;;
30303;SDS011;17112;48.636;10.152;2024-02-04T08:53:20;3.97;;;3.22;;
30303;SDS011;17112;48.636;10.152;2024-02-04T08:55:46;2.08;;;1.65;;
30303;SDS011;17112;48.636;10.152;2024-02-04T08:58:12;1.23;;;1.05;;
30303;SDS011;17112;48.636;10.152;2024-02-04T09:00:37;0.60;;;0.60;;
30303;SDS011;17112;48.636;10.152;2024-02-04T09:03:03;0.60;;;0.60;;
30303;SDS011;17112;48.636;10.152;2024-02-04T09:05:29;0.93;;;0.85;;
30303;SDS011;17112;48.636;10.152;2024-02-04T09:07:55;0.93;;;0.80;;
30303;SDS011;17112;48.636;10.152;2024-02-04T09:10:21;0.90;;;0.80;;
30303;SDS011;17112;48.636;10.152;2024-02-04T09:12:47;0.88;;;0.88;;
30303;SDS011;17112;48.636;10.152;2024-02-04T09:15:12;0.95;;;0.70;;
30303;SDS011;17112;48.636;10.152;2024-02-04T09:17:38;0.82;;;0.82;;
30303;SDS011;17112;48.636;10.152;2024-02-04T09:20:04;0.70;;;0.70;;
30303;SDS011;17112;48.636;10.152;2024-02-04T09:22:30;0.60;;;0.60;;
30303;SDS011;17112;48.636;10.152;2024-02-04T09:24:56;1.52;;;0.80;;
30303;SDS011;17112;48.636;10.152;2024-02-04T09:27:22;0.82;;;0.70;;
30303;SDS011;17112;48.636;10.152;2024-02-04T09:29:47;0.60;;;0.60;;
30303;SDS011;17112;48.636;10.152;2024-02-04T09:32:13;0.60;;;0.60;;
30303;SDS011;17112;48.636;10.152;2024-02-04T09:34:39;1.40;;;0.57;;
30303;SDS011;17112;48.636;10.152;2024-02-04T09:37:05;0.50;;;0.50;;
30303;SDS011;17112;48.636;10.152;2024-02-04T09:39:32;0.60;;;0.60;;
30303;SDS011;17112;48.636;10.152;2024-02-04T09:41:57;0.50;;;0.50;;
30303;SDS011;17112;48.636;10.152;2024-02-04T09:44:24;0.50;;;0.50;;
30303;SDS011;17112;48.636;10.152;2024-02-04T09:46:50;0.50;;;0.40;;
30303;SDS011;17112;48.636;10.152;2024-02-04T09:49:17;0.40;;;0.40;;
30303;SDS011;17112;48.636;10.152;2024-02-04T09:51:44;0.40;;;0.40;;
30303;SDS011;17112;48.636;10.152;2024-02-04T09:54:10;0.65;;;0.65;;
30303;SDS011;17112;48.636;10.152;2024-02-04T09:56:37;0.40;;;0.40;;
30303;SDS011;17112;48.636;10.152;2024-02-04T09:59:03;0.40;;;0.40;;
30303;SDS011;17112;48.636;10.152;2024-02-04T10:01:30;0.40;;;0.40;;
30303;SDS011;17112;48.636;10.152;2024-02-04T10:03:57;0.40;;;0.40;;
30303;SDS011;17112;48.636;10.152;2024-02-04T10:06:24;1.05;;;0.60;;
30303;SDS011;17112;48.636;10.152;2024-02-04T10:08:51;0.60;;;0.50;;
30303;SDS011;17112;48.636;10.152;2024-02-04T10:11:17;0.52;;;0.52;;
30303;SDS011;17112;48.636;10.152;2024-02-04T10:13:46;0.43;;;0.43;;
30303;SDS011;17112;48.636;10.152;2024-02-04T10:16:13;0.60;;;0.60;;
30303;SDS011;17112;48.636;10.152;2024-02-04T10:18:43;0.82;;;0.80;;
30303;SDS011;17112;48.636;10.152;2024-02-04T10:21:17;0.52;;;0.52;;
30303;SDS011;17112;48.636;10.152;2024-02-04T10:23:47;0.40;;;0.40;;
30303;SDS011;17112;48.636;10.152;2024-02-04T10:26:13;2.28;;;0.60;;
30303;SDS011;17112;48.636;10.152;2024-02-04T10:28:39;0.50;;;0.50;;
30303;SDS011;17112;48.636;10.152;2024-02-04T10:31:07;0.85;;;0.52;;
30303;SDS011;17112;48.636;10.152;2024-02-04T10:33:34;0.50;;;0.50;;
30303;SDS011;17112;48.636;10.152;2024-02-04T10:36:00;0.63;;;0.50;;
30303;SDS011;17112;48.636;10.152;2024-02-04T10:38:26;0.50;;;0.50;;
30303;SDS011;17112;48.636;10.152;2024-02-04T10:40:53;0.50;;;0.50;;
30303;SDS011;17112;48.636;10.152;2024-02-04T10:43:20;0.47;;;0.47;;
30303;SDS011;17112;48.636;10.152;2024-02-04T10:45:47;0.88;;;0.88;;
30303;SDS011;17112;48.636;10.152;2024-02-04T10:48:14;1.30;;;0.50;;
30303;SDS011;17112;48.636;10.152;2024-02-04T10:50:44;0.68;;;0.68;;
30303;SDS011;17112;48.636;10.152;2024-02-04T10:53:13;1.10;;;1.00;;
30303;SDS011;17112;48.636;10.152;2024-02-04T10:55:43;3.35;;;0.90;;
30303;SDS011;17112;48.636;10.152;2024-02-04T10:58:12;1.45;;;0.70;;
30303;SDS011;17112;48.636;10.152;2024-02-04T11:00:39;0.80;;;0.73;;
30303;SDS011;17112;48.636;10.152;2024-02-04T11:03:06;1.20;;;1.10;;
30303;SDS011;17112;48.636;10.152;2024-02-04T11:05:33;0.85;;;0.85;;
30303;SDS011;17112;48.636;10.152;2024-02-04T11:08:01;1.58;;;0.80;;
30303;SDS011;17112;48.636;10.152;2024-02-04T11:10:29;0.98;;;0.77;;
30303;SDS011;17112;48.636;10.152;2024-02-04T11:12:56;0.70;;;0.70;;
30303;SDS011;17112;48.636;10.152;2024-02-04T11:15:24;0.50;;;0.50;;
30303;SDS011;17112;48.636;10.152;2024-02-04T11:18:12;1.05;;;0.55;;
30303;SDS011;17112;48.636;10.152;2024-02-04T11:21:08;0.60;;;0.60;;
30303;SDS011;17112;48.636;10.152;2024-02-04T11:23:52;0.50;;;0.50;;
30303;SDS011;17112;48.636;10.152;2024-02-04T11:26:32;0.50;;;0.50;;
30303;SDS011;17112;48.636;10.152;2024-02-04T11:28:58;0.45;;;0.45;;
30303;SDS011;17112;48.636;10.152;2024-02-04T11:31:27;0.50;;;0.50;;
30303;SDS011;17112;48.636;10.152;2024-02-04T11:33:54;0.80;;;0.50;;
30303;SDS011;17112;48.636;10.152;2024-02-04T11:36:24;3.70;;;0.60;;
30303;SDS011;17112;48.636;10.152;2024-02-04T11:38:50;0.57;;;0.50;;
30303;SDS011;17112;48.636;10.152;2024-02-04T11:41:22;0.93;;;0.50;;
30303;SDS011;17112;48.636;10.152;2024-02-04T11:43:51;0.77;;;0.50;;
30303;SDS011;17112;48.636;10.152;2024-02-04T11:46:21;1.05;;;0.60;;
30303;SDS011;17112;48.636;10.152;2024-02-04T11:48:53;0.50;;;0.50;;
30303;SDS011;17112;48.636;10.152;2024-02-04T11:51:22;0.52;;;0.50;;
30303;SDS011;17112;48.636;10.152;2024-02-04T11:53:51;3.63;;;1.10;;
30303;SDS011;17112;48.636;10.152;2024-02-04T11:56:20;0.75;;;0.68;;
30303;SDS011;17112;48.636;10.152;2024-02-04T11:58:46;1.13;;;0.70;;
30303;SDS011;17112;48.636;10.152;2024-02-04T12:01:12;0.40;;;0.40;;
30303;SDS011;17112;48.636;10.152;2024-02-04T12:03:38;0.40;;;0.40;;
30303;SDS011;17112;48.636;10.152;2024-02-04T12:06:03;0.50;;;0.50;;
30303;SDS011;17112;48.636;10.152;2024-02-04T12:08:30;0.65;;;0.50;;
30303;SDS011;17112;48.636;10.152;2024-02-04T12:10:57;0.50;;;0.50;;
30303;SDS011;17112;48.636;10.152;2024-02-04T12:13:25;4.80;;;0.50;;
30303;SDS011;17112;48.636;10.152;2024-02-04T12:15:53;0.40;;;0.40;;
30303;SDS011;17112;48.636;10.152;2024-02-04T12:18:19;0.50;;;0.50;;
30303;SDS011;17112;48.636;10.152;2024-02-04T12:20:46;0.50;;;0.50;;
30303;SDS011;17112;48.636;10.152;2024-02-04T12:23:15;0.50;;;0.50;;
30303;SDS011;17112;48.636;10.152;2024-02-04T12:25:43;0.55;;;0.55;;
30303;SDS011;17112;48.636;10.152;2024-02-04T12:28:09;0.60;;;0.60;;
30303;SDS011;17112;48.636;10.152;2024-02-04T12:30:35;0.50;;;0.50;;
30303;SDS011;17112;48.636;10.152;2024-02-04T12:33:02;0.80;;;0.55;;
30303;SDS011;17112;48.636;10.152;2024-02-04T12:35:31;0.82;;;0.50;;
30303;SDS011;17112;48.636;10.152;2024-02-04T12:37:58;0.90;;;0.60;;
30303;SDS011;17112;48.636;10.152;2024-02-04T12:40:25;2.97;;;0.70;;
30303;SDS011;17112;48.636;10.152;2024-02-04T12:42:55;0.82;;;0.75;;
30303;SDS011;17112;48.636;10.152;2024-02-04T12:45:22;1.17;;;0.88;;
30303;SDS011;17112;48.636;10.152;2024-02-04T12:47:52;1.00;;;0.90;;
30303;SDS011;17112;48.636;10.152;2024-02-04T12:50:19;1.35;;;0.85;;
30303;SDS011;17112;48.636;10.152;2024-02-04T12:52:46;0.88;;;0.70;;
30303;SDS011;17112;48.636;10.152;2024-02-04T12:55:19;1.42;;;0.50;;
30303;SDS011;17112;48.636;10.152;2024-02-04T12:57:48;0.60;;;0.50;;
30303;SDS011;17112;48.636;10.152;2024-02-04T13:00:17;0.93;;;0.55;;
30303;SDS011;17112;48.636;10.152;2024-02-04T13:02:43;0.52;;;0.45;;
30303;SDS011;17112;48.636;10.152;2024-02-04T13:05:09;0.50;;;0.50;;
30303;SDS011;17112;48.636;10.152;2024-02-04T13:07:35;4.10;;;0.75;;
30303;SDS011;17112;48.636;10.152;2024-02-04T13:10:01;1.90;;;0.50;;
30303;SDS011;17112;48.636;10.152;2024-02-04T13:12:27;0.50;;;0.50;;
30303;SDS011;17112;48.636;10.152;2024-02-04T13:14:53;1.13;;;0.60;;
30303;SDS011;17112;48.636;10.152;2024-02-04T13:17:19;0.40;;;0.40;;
30303;SDS011;17112;48.636;10.152;2024-02-04T13:19:44;0.50;;;0.50;;
30303;SDS011;17112;48.636;10.152;2024-02-04T13:22:10;1.13;;;0.50;;
30303;SDS011;17112;48.636;10.152;2024-02-04T13:24:37;0.50;;;0.50;;
30303;SDS011;17112;48.636;10.152;2024-02-04T13:27:04;0.50;;;0.50;;
30303;SDS011;17112;48.636;10.152;2024-02-04T13:29:32;1.02;;;0.47;;
30303;SDS011;17112;48.636;10.152;2024-02-04T13:31:59;0.50;;;0.50;;
30303;SDS011;17112;48.636;10.152;2024-02-04T13:34:25;1.10;;;0.88;;
30303;SDS011;17112;48.636;10.152;2024-02-04T13:36:52;0.70;;;0.70;;
30303;SDS011;17112;48.636;10.152;2024-02-04T13:39:17;0.70;;;0.70;;
30303;SDS011;17112;48.636;10.152;2024-02-04T13:41:43;1.10;;;1.00;;
30303;SDS011;17112;48.636;10.152;2024-02-04T13:44:09;0.70;;;0.70;;
30303;SDS011;17112;48.636;10.152;2024-02-04T13:46:35;0.50;;;0.50;;
30303;SDS011;17112;48.636;10.152;2024-02-04T13:49:04;0.80;;;0.68;;
30303;SDS011;17112;48.636;10.152;2024-02-04T13:51:31;1.15;;;0.70;;
30303;SDS011;17112;48.636;10.152;2024-02-04T13:53:56;1.10;;;1.00;;
30303;SDS011;17112;48.636;10.152;2024-02-04T13:56:22;0.57;;;0.57;;
30303;SDS011;17112;48.636;10.152;2024-02-04T13:58:48;1.77;;;0.60;;
30303;SDS011;17112;48.636;10.152;2024-02-04T14:01:13;0.70;;;0.60;;
30303;SDS011;17112;48.636;10.152;2024-02-04T14:03:40;2.33;;;0.60;;
30303;SDS011;17112;48.636;10.152;2024-02-04T14:06:06;0.50;;;0.50;;
30303;SDS011;17112;48.636;10.152;2024-02-04T14:08:32;0.60;;;0.60;;
30303;SDS011;17112;48.636;10.152;2024-02-04T14:10:58;0.55;;;0.55;;
30303;SDS011;17112;48.636;10.152;2024-02-04T14:13:23;0.50;;;0.50;;
30303;SDS011;17112;48.636;10.152;2024-02-04T14:15:49;0.65;;;0.65;;
30303;SDS011;17112;48.636;10.152;2024-02-04T14:18:15;0.70;;;0.70;;
30303;SDS011;17112;48.636;10.152;2024-02-04T14:20:40;0.70;;;0.70;;
30303;SDS011;17112;48.636;10.152;2024-02-04T14:23:06;0.52;;;0.50;;
30303;SDS011;17112;48.636;10.152;2024-02-04T14:25:34;0.77;;;0.60;;
30303;SDS011;17112;48.636;10.152;2024-02-04T14:27:59;0.60;;;0.60;;
30303;SDS011;17112;48.636;10.152;2024-02-04T14:30:25;8.18;;;5.13;;
30303;SDS011;17112;48.636;10.152;2024-02-04T14:32:51;3.42;;;2.47;;
30303;SDS011;17112;48.636;10.152;2024-02-04T14:35:16;2.95;;;1.33;;
30303;SDS011;17112;48.636;10.152;2024-02-04T14:37:42;2.53;;;1.65;;
30303;SDS011;17112;48.636;10.152;2024-02-04T14:40:09;1.58;;;1.15;;